createdAt,value
2022-12-27T00:00:08.502Z,100727.13
2022-12-27T00:02:41.533Z,100737.13
2022-12-27T00:05:10.135Z,100739.06
2022-12-27T00:07:37.464Z,100745.47
2022-12-27T00:10:06.692Z,100738.75
2022-12-27T00:12:33.961Z,100741.69
2022-12-27T00:15:01.148Z,100745.56
2022-12-27T00:17:28.320Z,100744.16
2022-12-27T00:19:55.225Z,100747.22
2022-12-27T00:22:22.385Z,100747.44
2022-12-27T00:24:49.314Z,100741.59
2022-12-27T00:27:16.311Z,100750.75
2022-12-27T00:29:43.222Z,100751.03
2022-12-27T00:32:10.146Z,100756.56
2022-12-27T00:34:37.049Z,100754.06
2022-12-27T00:37:04.018Z,100760.47
2022-12-27T00:39:30.947Z,100752.09
2022-12-27T00:41:58.118Z,100761.97
2022-12-27T00:44:25.061Z,100761.22
2022-12-27T00:46:51.993Z,100770.41
2022-12-27T00:49:18.901Z,100777.59
2022-12-27T00:51:45.827Z,100777.88
2022-12-27T00:54:12.748Z,100785.09
2022-12-27T00:56:39.666Z,100786.19
2022-12-27T00:59:06.607Z,100788.97
2022-12-27T01:01:35.980Z,100791.03
2022-12-27T01:04:03.934Z,100789.47
2022-12-27T01:06:33.494Z,100795.88
2022-12-27T01:09:02.107Z,100798.63
2022-12-27T01:11:29.849Z,100798.88
2022-12-27T01:14:02.746Z,100801.78
2022-12-27T01:16:31.778Z,100799.38
2022-12-27T01:18:59.744Z,100809.25
2022-12-27T01:21:27.803Z,100809.50
2022-12-27T01:23:55.251Z,100818.50
2022-12-27T01:26:24.058Z,100821.28
2022-12-27T01:28:52.540Z,100816.25
2022-12-27T01:31:24.593Z,100817.22
2022-12-27T01:33:59.053Z,100832.34
2022-12-27T01:36:28.495Z,100820.22
2022-12-27T01:38:58.870Z,100826.59
2022-12-27T01:41:52.978Z,100831.19
2022-12-27T01:44:38.259Z,100823.50
2022-12-27T01:47:51.341Z,100836.13
2022-12-27T01:50:44.404Z,100828.34
2022-12-27T01:53:41.568Z,100835.66
2022-12-27T01:56:33.526Z,100832.44
2022-12-27T01:59:05.386Z,100843.09
2022-12-27T02:01:42.692Z,100844.06
2022-12-27T02:04:15.503Z,100848.50
2022-12-27T02:06:42.915Z,100855.72
2022-12-27T02:09:39.513Z,100847.94
2022-12-27T02:12:09.100Z,100855.84
2022-12-27T02:14:47.019Z,100855.94
2022-12-27T02:17:27.071Z,100863.88
2022-12-27T02:20:16.080Z,100868.44
2022-12-27T02:23:22.408Z,100866.75
2022-12-27T02:26:14.729Z,100860.66
2022-12-27T02:29:07.578Z,100867.81
2022-12-27T02:31:49.229Z,100877.56
2022-12-27T02:34:27.172Z,100870.59
2022-12-27T02:37:01.438Z,100874.91
2022-12-27T02:39:35.790Z,100868.69
2022-12-27T02:42:23.247Z,100866.06
2022-12-27T02:45:09.029Z,100865.19
2022-12-27T02:47:54.887Z,100866.16
2022-12-27T02:50:40.803Z,100871.44
2022-12-27T02:53:39.905Z,100871.44
2022-12-27T02:56:45.387Z,100871.44
2022-12-27T02:59:36.611Z,100869.75
2022-12-27T03:02:40.793Z,100871.56
2022-12-27T03:05:13.396Z,100864.47
2022-12-27T03:08:11.341Z,100866.28
2022-12-27T03:11:17.751Z,100868.09
2022-12-27T03:14:30.946Z,100882.97
2022-12-27T03:17:22.796Z,100879.47
2022-12-27T03:20:16.083Z,100874.19
2022-12-27T03:23:03.977Z,100882.13
2022-12-27T03:25:34.682Z,100890.03
2022-12-27T03:28:35.541Z,100889.19
2022-12-27T03:31:43.340Z,100889.19
2022-12-27T03:34:31.848Z,100896.16
2022-12-27T03:37:36.427Z,100888.38
2022-12-27T03:40:34.544Z,100891.00
2022-12-27T03:43:15.901Z,100896.28
2022-12-27T03:46:27.377Z,100897.25
2022-12-27T03:49:02.709Z,100895.69
2022-12-27T03:51:37.231Z,100886.91
2022-12-27T03:54:16.304Z,100888.72
2022-12-27T03:56:43.205Z,100889.56
2022-12-27T03:59:12.183Z,100897.47
2022-12-27T04:01:39.460Z,100894.13
2022-12-27T04:04:06.429Z,100899.41
2022-12-27T04:06:33.355Z,100895.94
2022-12-27T04:09:18.480Z,100899.41
2022-12-27T04:12:03.580Z,100894.25
2022-12-27T04:14:49.987Z,100896.91
2022-12-27T04:17:35.234Z,100901.34
2022-12-27T04:20:20.967Z,100900.50
2022-12-27T04:23:06.191Z,100895.22
2022-12-27T04:25:51.462Z,100910.22
2022-12-27T04:28:36.747Z,100894.38
2022-12-27T04:31:22.138Z,100889.94
2022-12-27T04:34:08.515Z,100883.81
2022-12-27T04:36:36.016Z,100894.38
2022-12-27T04:39:03.741Z,100896.06
2022-12-27T04:41:49.456Z,100890.66
2022-12-27T04:44:36.110Z,100891.50
2022-12-27T04:47:21.758Z,100901.78
2022-12-27T04:50:07.583Z,100903.59
2022-12-27T04:52:53.595Z,100893.88
2022-12-27T04:55:23.509Z,100893.88
2022-12-27T04:57:52.420Z,100890.53
2022-12-27T05:00:41.437Z,100893.88
2022-12-27T05:03:13.282Z,100902.75
2022-12-27T05:05:42.480Z,100908.03
2022-12-27T05:08:29.424Z,100899.41
2022-12-27T05:11:15.229Z,100903.00
2022-12-27T05:14:00.695Z,100898.78
2022-12-27T05:16:35.377Z,100909.34
2022-12-27T05:19:02.487Z,100911.28
2022-12-27T05:21:29.393Z,100908.78
2022-12-27T05:24:14.689Z,100913.22
2022-12-27T05:26:41.638Z,100920.41
2022-12-27T05:29:08.722Z,100930.09
2022-12-27T05:31:35.916Z,100939.81
2022-12-27T05:34:02.961Z,100938.97
2022-12-27T05:36:29.913Z,100945.22
2022-12-27T05:38:57.914Z,100947.88
2022-12-27T05:41:26.211Z,100949.53
2022-12-27T05:43:53.128Z,100952.31
2022-12-27T05:46:22.084Z,100952.31
2022-12-27T05:48:49.132Z,100950.50
2022-12-27T05:51:21.054Z,100954.94
2022-12-27T05:53:48.761Z,100958.41
2022-12-27T05:56:20.283Z,100952.31
2022-12-27T05:58:48.075Z,100947.03
2022-12-27T06:01:17.748Z,100951.47
2022-12-27T06:03:45.590Z,100946.19
2022-12-27T06:06:13.425Z,100942.84
2022-12-27T06:08:41.311Z,100938.53
2022-12-27T06:11:12.819Z,100940.28
2022-12-27T06:13:42.499Z,100939.44
2022-12-27T06:16:12.479Z,100946.66
2022-12-27T06:18:41.681Z,100954.56
2022-12-27T06:21:18.772Z,100961.66
2022-12-27T06:23:46.760Z,100966.09
2022-12-27T06:26:18.932Z,100956.50
2022-12-27T06:28:46.488Z,100961.78
2022-12-27T06:31:13.454Z,100962.75
2022-12-27T06:33:40.440Z,100973.28
2022-12-27T06:36:10.900Z,100974.00
2022-12-27T06:38:38.384Z,100971.38
2022-12-27T06:41:11.492Z,100984.56
2022-12-27T06:43:39.046Z,100980.25
2022-12-27T06:46:16.860Z,100974.97
2022-12-27T06:48:48.416Z,100974.97
2022-12-27T06:51:19.316Z,100972.31
2022-12-27T06:53:47.682Z,100970.53
2022-12-27T06:56:18.134Z,100974.97
2022-12-27T06:58:47.297Z,100978.56
2022-12-27T07:01:16.852Z,100985.53
2022-12-27T07:03:48.020Z,100995.25
2022-12-27T07:06:14.869Z,100992.59
2022-12-27T07:08:41.763Z,100988.28
2022-12-27T07:11:12.183Z,100992.59
2022-12-27T07:13:42.887Z,100999.69
2022-12-27T07:16:12.708Z,100989.97
2022-12-27T07:18:40.449Z,100994.28
2022-12-27T07:21:11.966Z,100990.78
2022-12-27T07:23:39.112Z,101003.03
2022-12-27T07:26:09.437Z,100997.75
2022-12-27T07:28:37.840Z,101000.38
2022-12-27T07:31:10.547Z,101010.94
2022-12-27T07:33:38.956Z,101012.63
2022-12-27T07:36:12.292Z,101012.75
2022-12-27T07:38:40.286Z,101014.41
2022-12-27T07:41:07.486Z,101009.16
2022-12-27T07:43:35.584Z,101020.53
2022-12-27T07:46:08.509Z,101012.75
2022-12-27T07:48:35.942Z,101018.88
2022-12-27T07:51:03.980Z,101018.03
2022-12-27T07:53:31.633Z,101018.88
2022-12-27T07:55:58.729Z,101021.50
2022-12-27T07:58:25.866Z,101033.00
2022-12-27T08:00:53.291Z,101035.53
2022-12-27T08:03:20.365Z,101032.88
2022-12-27T08:05:54.565Z,101036.38
2022-12-27T08:08:26.980Z,101038.03
2022-12-27T08:10:53.882Z,101043.09
2022-12-27T08:13:20.789Z,101036.16
2022-12-27T08:15:47.916Z,101037.81
2022-12-27T08:18:14.828Z,101040.34
2022-12-27T08:20:41.730Z,101045.50
2022-12-27T08:23:08.627Z,101038.22
2022-12-27T08:25:35.589Z,101037.13
2022-12-27T08:28:08.281Z,101036.03
2022-12-27T08:30:35.235Z,101048.75
2022-12-27T08:33:03.071Z,101052.03
2022-12-27T08:38:18.329Z,101058.25
2022-12-27T08:40:46.201Z,101056.13
2022-12-27T08:43:14.152Z,101052.44
2022-12-27T08:45:41.163Z,101056.50
2022-12-27T08:48:08.159Z,101053.63
2022-12-27T08:50:35.369Z,101057.81
2022-12-27T08:53:04.709Z,101061.06
2022-12-27T08:55:32.725Z,101064.56
2022-12-27T08:58:12.097Z,101065.28
2022-12-27T09:00:42.558Z,101073.91
2022-12-27T09:03:10.535Z,101072.00
2022-12-27T09:05:41.719Z,101062.16
2022-12-27T09:08:09.392Z,101068.16
2022-12-27T09:10:37.041Z,101067.94
2022-12-27T09:13:04.176Z,101068.38
2022-12-27T09:15:31.126Z,101070.69
2022-12-27T09:17:58.105Z,101069.34
2022-12-27T09:20:25.112Z,101076.53
2022-12-27T09:22:52.076Z,101072.47
2022-12-27T09:25:19.160Z,101075.34
2022-12-27T09:27:46.151Z,101073.91
2022-12-27T09:30:13.446Z,101077.72
2022-12-27T09:32:40.386Z,101082.28
2022-12-27T09:35:07.770Z,101079.00
2022-12-27T09:37:34.686Z,101081.75
2022-12-27T09:40:01.634Z,101080.28
2022-12-27T09:43:12.863Z,101074.09
2022-12-27T09:45:53.916Z,101075.19
2022-12-27T09:48:39.226Z,101072.72
2022-12-27T09:51:25.123Z,101075.56
2022-12-27T09:54:16.955Z,101080.38
2022-12-27T09:59:39.217Z,101084.50
2022-12-27T10:02:28.393Z,101075.22
2022-12-27T10:05:19.681Z,101080.00
2022-12-27T10:08:25.678Z,101073.22
2022-12-27T10:11:37.042Z,101071.13
2022-12-27T10:14:12.626Z,101061.13
2022-12-27T10:16:47.355Z,101071.19
2022-12-27T10:19:48.699Z,101062.00
2022-12-27T10:22:48.069Z,101070.41
2022-12-27T10:25:18.604Z,101072.06
2022-12-27T10:27:47.931Z,101067.59
2022-12-27T10:30:21.865Z,101070.72
2022-12-27T10:32:49.713Z,101063.22
2022-12-27T10:35:20.150Z,101061.84
2022-12-27T10:37:49.321Z,101058.66
2022-12-27T10:40:41.576Z,101061.50
2022-12-27T10:43:26.839Z,101055.81
2022-12-27T10:45:53.922Z,101043.81
2022-12-27T10:48:28.892Z,101054.03
2022-12-27T10:51:09.566Z,101049.72
2022-12-27T10:53:57.369Z,101050.72
2022-12-27T10:56:38.748Z,101051.56
2022-12-27T10:59:10.869Z,101050.06
2022-12-27T11:01:37.999Z,101055.66
2022-12-27T11:04:24.495Z,101049.53
2022-12-27T11:06:59.836Z,101043.38
2022-12-27T11:09:28.351Z,101043.66
2022-12-27T11:12:24.387Z,101048.28
2022-12-27T11:15:10.938Z,101055.41
2022-12-27T11:17:55.071Z,101048.56
2022-12-27T11:20:38.415Z,101060.31
2022-12-27T11:23:08.204Z,101050.06
2022-12-27T11:25:46.121Z,101057.63
2022-12-27T11:28:27.909Z,101051.22
2022-12-27T11:31:02.426Z,101045.75
2022-12-27T11:33:52.484Z,101048.66
2022-12-27T11:36:42.616Z,101048.09
2022-12-27T11:39:51.752Z,101043.16
2022-12-27T11:42:40.758Z,101050.88
2022-12-27T11:45:19.183Z,101047.91
2022-12-27T11:48:04.920Z,101051.13
2022-12-27T11:51:02.800Z,101050.56
2022-12-27T11:53:56.436Z,101049.16
2022-12-27T11:56:36.998Z,101042.84
2022-12-27T11:59:44.603Z,101042.53
2022-12-27T12:02:42.108Z,101037.94
2022-12-27T12:05:51.627Z,101038.53
2022-12-27T12:08:49.338Z,101036.53
2022-12-27T12:11:28.575Z,101034.63
2022-12-27T12:14:26.101Z,101036.13
2022-12-27T12:17:36.189Z,101038.38
2022-12-27T12:20:13.711Z,101046.09
2022-12-27T12:23:17.961Z,101045.56
2022-12-27T12:26:19.660Z,101035.34
2022-12-27T12:29:20.128Z,101039.97
2022-12-27T12:32:52.834Z,101033.28
2022-12-27T12:35:43.185Z,101029.22
2022-12-27T12:38:38.379Z,101026.31
2022-12-27T12:41:50.036Z,101026.03
2022-12-27T12:45:09.922Z,101036.25
2022-12-27T12:48:08.869Z,101031.53
2022-12-27T12:50:57.734Z,101029.44
2022-12-27T12:53:57.599Z,101021.56
2022-12-27T12:56:56.509Z,101026.59
2022-12-27T12:59:49.415Z,101018.78
2022-12-27T13:02:48.284Z,101020.91
2022-12-27T13:05:45.679Z,101018.38
2022-12-27T13:08:33.175Z,101013.50
2022-12-27T13:11:04.949Z,101019.91
2022-12-27T13:14:09.459Z,101022.44
2022-12-27T13:16:54.992Z,101022.44
2022-12-27T13:19:55.730Z,101018.38
2022-12-27T13:22:56.360Z,101019.38
2022-12-27T13:25:54.968Z,101010.41
2022-12-27T13:29:03.394Z,101010.41
2022-12-27T13:31:51.302Z,101016.56
2022-12-27T13:34:33.314Z,101013.75
2022-12-27T13:37:39.502Z,101008.19
2022-12-27T13:40:34.850Z,101003.72
2022-12-27T13:43:37.041Z,101004.25
2022-12-27T13:46:44.958Z,101002.19
2022-12-27T13:49:45.996Z,100999.38
2022-12-27T13:53:00.104Z,101000.22
2022-12-27T13:55:55.469Z,100997.41
2022-12-27T13:58:28.013Z,100997.56
2022-12-27T14:01:25.571Z,101000.06
2022-12-27T14:04:42.302Z,101004.84
2022-12-27T14:07:41.704Z,100999.53
2022-12-27T14:10:20.565Z,101004.97
2022-12-27T14:12:58.774Z,100990.88
2022-12-27T14:16:20.262Z,100987.50
2022-12-27T14:19:00.639Z,100987.22
2022-12-27T14:22:02.871Z,100981.34
2022-12-27T14:25:35.962Z,100990.03
2022-12-27T14:28:41.572Z,100981.34
2022-12-27T14:31:49.626Z,100985.69
2022-12-27T14:35:00.305Z,100988.06
2022-12-27T14:37:45.287Z,100991.72
2022-12-27T14:41:12.625Z,100984.16
2022-12-27T14:44:37.731Z,100984.72
2022-12-27T14:47:48.763Z,100984.72
2022-12-27T14:50:42.750Z,100981.09
2022-12-27T14:53:47.231Z,100968.50
2022-12-27T14:56:47.476Z,100980.09
2022-12-27T14:59:48.604Z,100975.78
2022-12-27T15:02:53.809Z,100982.75
2022-12-27T15:05:55.671Z,100982.75
2022-12-27T15:09:03.850Z,100977.72
2022-12-27T15:11:54.460Z,100973.38
2022-12-27T15:15:10.394Z,100980.53
2022-12-27T15:18:28.858Z,100985.97
2022-12-27T15:21:25.312Z,100979.00
2022-12-27T15:24:11.289Z,100971.28
2022-12-27T15:27:02.774Z,100969.63
2022-12-27T15:29:58.139Z,100964.72
2022-12-27T15:33:09.549Z,100972.84
2022-12-27T15:35:52.450Z,100967.81
2022-12-27T15:38:39.191Z,100972.41
2022-12-27T15:41:09.037Z,100969.06
2022-12-27T15:44:19.278Z,100971.03
2022-12-27T15:47:29.489Z,100967.81
2022-12-27T15:50:36.723Z,100967.94
2022-12-27T15:53:29.724Z,100955.66
2022-12-27T15:56:24.310Z,100961.13
2022-12-27T15:59:36.373Z,100961.22
2022-12-27T16:02:43.378Z,100965.84
2022-12-27T16:05:19.493Z,100966.00
2022-12-27T16:07:58.867Z,100962.50
2022-12-27T16:10:42.188Z,100960.84
2022-12-27T16:13:41.343Z,100953.97
2022-12-27T16:16:38.555Z,100947.00
2022-12-27T16:19:19.807Z,100941.84
2022-12-27T16:21:46.989Z,100948.97
2022-12-27T16:24:22.055Z,100943.81
2022-12-27T16:27:04.678Z,100936.94
2022-12-27T16:29:36.369Z,100937.94
2022-12-27T16:32:21.826Z,100938.06
2022-12-27T16:34:55.555Z,100940.03
2022-12-27T16:37:43.000Z,100938.31
2022-12-27T16:40:44.687Z,100934.28
2022-12-27T16:43:11.465Z,100929.97
2022-12-27T16:45:54.390Z,100933.59
2022-12-27T16:48:49.017Z,100924.25
2022-12-27T16:52:28.173Z,100925.47
2022-12-27T16:55:30.687Z,100929.41
2022-12-27T16:58:34.998Z,100913.91
2022-12-27T17:01:27.061Z,100910.66
2022-12-27T17:03:56.235Z,100913.59
2022-12-27T17:06:38.290Z,100926.13
2022-12-27T17:09:08.250Z,100926.38
2022-12-27T17:11:39.123Z,100925.69
2022-12-27T17:14:25.794Z,100923.44
2022-12-27T17:17:02.651Z,100921.91
2022-12-27T17:20:00.639Z,100930.41
2022-12-27T17:22:34.684Z,100922.47
2022-12-27T17:25:03.592Z,100917.56
2022-12-27T17:28:31.552Z,100920.63
2022-12-27T17:31:31.284Z,100918.38
2022-12-27T17:34:30.589Z,100917.78
2022-12-27T17:37:13.001Z,100911.81
2022-12-27T17:40:09.455Z,100903.31
2022-12-27T17:43:42.455Z,100901.88
2022-12-27T17:46:42.494Z,100899.47
2022-12-27T17:49:11.426Z,100891.81
2022-12-27T17:52:01.918Z,100886.81
2022-12-27T17:54:48.259Z,100889.56
2022-12-27T17:57:54.211Z,100881.91
2022-12-27T18:00:29.565Z,100886.75
2022-12-27T18:02:59.499Z,100871.16
2022-12-27T18:05:32.094Z,100874.78
2022-12-27T18:08:16.765Z,100863.47
2022-12-27T18:10:44.132Z,100868.91
2022-12-27T18:13:18.446Z,100871.69
2022-12-27T18:15:48.831Z,100876.97
2022-12-27T18:18:34.369Z,100873.59
2022-12-27T18:21:04.264Z,100864.97
2022-12-27T18:23:42.449Z,100861.34
2022-12-27T18:26:15.118Z,100859.66
2022-12-27T18:28:43.001Z,100864.13
2022-12-27T18:32:05.319Z,100865.25
2022-12-27T18:34:49.062Z,100855.63
2022-12-27T18:37:27.014Z,100850.34
2022-12-27T18:40:27.398Z,100847.09
2022-12-27T18:43:16.569Z,100848.31
2022-12-27T18:45:48.218Z,100849.44
2022-12-27T18:48:18.402Z,100848.75
2022-12-27T18:50:52.352Z,100845.50
2022-12-27T18:53:35.791Z,100843.69
2022-12-27T18:56:13.941Z,100826.16
2022-12-27T18:58:58.132Z,100827.97
2022-12-27T19:01:42.217Z,100828.09
2022-12-27T19:04:16.389Z,100828.94
2022-12-27T19:07:03.890Z,100830.75
2022-12-27T19:09:50.925Z,100822.81
2022-12-27T19:12:39.245Z,100820.16
2022-12-27T19:15:17.911Z,100820.16
2022-12-27T19:18:02.236Z,100817.53
2022-12-27T19:20:33.954Z,100816.53
2022-12-27T19:23:22.755Z,100812.91
2022-12-27T19:26:01.436Z,100809.31
2022-12-27T19:28:30.226Z,100804.00
2022-12-27T19:31:21.829Z,100801.38
2022-12-27T19:33:57.018Z,100791.75
2022-12-27T19:36:33.582Z,100789.94
2022-12-27T19:39:01.096Z,100801.38
2022-12-27T19:41:28.929Z,100791.06
2022-12-27T19:43:56.402Z,100785.75
2022-12-27T19:46:30.447Z,100796.59
2022-12-27T19:51:45.706Z,100785.72
2022-12-27T19:54:18.049Z,100788.50
2022-12-27T19:56:45.245Z,100791.41
2022-12-27T19:59:22.786Z,100780.00
2022-12-27T20:01:50.558Z,100772.06
2022-12-27T20:04:18.464Z,100774.56
2022-12-27T20:06:48.696Z,100780.69
2022-12-27T20:09:19.576Z,100784.03
2022-12-27T20:11:49.221Z,100784.03
2022-12-27T20:14:17.865Z,100772.06
2022-12-27T20:16:46.847Z,100768.84
2022-12-27T20:19:16.331Z,100766.59
2022-12-27T20:21:43.617Z,100753.03
2022-12-27T20:24:12.257Z,100757.91
2022-12-27T20:26:40.292Z,100760.81
2022-12-27T20:29:07.414Z,100757.72
2022-12-27T20:31:37.656Z,100761.47
2022-12-27T20:34:11.446Z,100753.81
2022-12-27T20:36:38.478Z,100746.00
2022-12-27T20:39:06.943Z,100753.22
2022-12-27T20:41:34.381Z,100755.88
2022-12-27T20:44:01.357Z,100750.88
2022-12-27T20:46:28.972Z,100756.00
2022-12-27T20:48:57.157Z,100749.06
2022-12-27T20:51:28.520Z,100738.72
2022-12-27T20:53:58.730Z,100744.16
2022-12-27T20:56:25.712Z,100741.50
2022-12-27T20:58:54.738Z,100749.44
2022-12-27T21:01:26.476Z,100742.47
2022-12-27T21:03:56.984Z,100729.25
2022-12-27T21:06:28.751Z,100737.19
2022-12-27T21:08:58.266Z,100738.16
2022-12-27T21:11:33.114Z,100726.75
2022-12-27T21:14:05.412Z,100732.88
2022-12-27T21:16:35.004Z,100727.59
2022-12-27T21:19:04.507Z,100723.97
2022-12-27T21:21:34.813Z,100721.34
2022-12-27T21:24:02.179Z,100732.59
2022-12-27T21:26:33.308Z,100730.66
2022-12-27T21:29:00.454Z,100727.06
2022-12-27T21:31:28.683Z,100734.03
2022-12-27T21:33:55.771Z,100734.72
2022-12-27T21:36:26.342Z,100729.28
2022-12-27T21:38:54.609Z,100723.88
2022-12-27T21:41:33.600Z,100721.13
2022-12-27T21:44:01.155Z,100710.41
2022-12-27T21:46:32.276Z,100722.66
2022-12-27T21:49:07.055Z,100712.06
2022-12-27T21:51:36.204Z,100719.88
2022-12-27T21:54:04.042Z,100717.34
2022-12-27T21:56:31.299Z,100717.34
2022-12-27T21:58:59.724Z,100716.53
2022-12-27T22:01:50.625Z,100721.13
2022-12-27T22:04:21.306Z,100707.06
2022-12-27T22:07:05.136Z,100710.66
2022-12-27T22:09:32.233Z,100705.63
2022-12-27T22:11:59.160Z,100705.50
2022-12-27T22:14:27.616Z,100707.31
2022-12-27T22:16:56.442Z,100702.03
2022-12-27T22:19:23.330Z,100691.44
2022-12-27T22:21:50.248Z,100680.88
2022-12-27T22:24:19.434Z,100679.19
2022-12-27T22:26:48.469Z,100673.91
2022-12-27T22:29:15.533Z,100682.00
2022-12-27T22:31:42.820Z,100673.31
2022-12-27T22:34:09.818Z,100674.19
2022-12-27T22:36:36.764Z,100675.13
2022-12-27T22:39:04.175Z,100676.13
2022-12-27T22:41:35.977Z,100684.03
2022-12-27T22:44:07.315Z,100673.59
2022-12-27T22:49:21.804Z,100673.59
2022-12-27T22:51:48.732Z,100673.75
2022-12-27T22:54:15.653Z,100676.53
2022-12-27T22:56:43.630Z,100673.88
2022-12-27T22:59:18.733Z,100673.03
2022-12-27T23:01:46.148Z,100675.81
2022-12-27T23:04:14.490Z,100673.16
2022-12-27T23:06:42.392Z,100672.31
2022-12-27T23:09:10.150Z,100668.00
2022-12-27T23:11:40.893Z,100676.78
2022-12-27T23:14:14.915Z,100661.06
2022-12-27T23:16:48.295Z,100662.72
2022-12-27T23:19:19.108Z,100667.19
2022-12-27T23:21:47.480Z,100663.84
2022-12-27T23:24:15.517Z,100663.00
2022-12-27T23:26:42.516Z,100656.03
2022-12-27T23:29:12.796Z,100654.34
2022-12-27T23:31:54.957Z,100660.47
2022-12-27T23:34:28.065Z,100655.31
2022-12-27T23:36:57.690Z,100651.84
2022-12-27T23:39:24.962Z,100652.69
2022-12-27T23:41:51.895Z,100646.56
2022-12-27T23:44:32.964Z,100636.81
2022-12-27T23:47:04.487Z,100631.53
2022-12-27T23:49:31.637Z,100633.22
2022-12-27T23:51:58.559Z,100636.81
2022-12-27T23:54:25.491Z,100627.09
2022-12-27T23:56:52.427Z,100625.28
2022-12-27T23:59:19.438Z,100616.38
